Stark, Kansas
Current Conditions -  °F | °C
As of 10:28 PM on Friday 19 Dec 2014 (Local Time) from KCNU Reporting Station
Haze Haze  
Wind Chill: 34°   Ceiling: 200
Heat Index: 34°   Visibility: 4mi
Dew Point: 34°   Wind: 3mph
Humidity: 100%   Direction: 280°W
Pressure: 30.22"   Gusts: NA
Location:  37.69°N, 95.14°W
Report Text: KCNU 200428Z AUTO 28003KT 4SM BR OVC002 01/01 A3022 RMK AO2 T00110011
Loading
Personal Weather Stations






























Interactive Weather Map New forecast layout! Learn more

10-Day Weather Forecast

Advertisements
Track Severe Weather on mobile